sensor_id;sensor_type;location;lat;lon;timestamp;P1;durP1;ratioP1;P2;durP2;ratioP2
22298;SDS011;11317;51.072;17.036;2022-11-20T00:01:49;40.60;;;15.27;;
22298;SDS011;11317;51.072;17.036;2022-11-20T00:04:15;32.08;;;13.98;;
22298;SDS011;11317;51.072;17.036;2022-11-20T00:06:41;29.63;;;13.18;;
22298;SDS011;11317;51.072;17.036;2022-11-20T00:09:09;29.13;;;14.82;;
22298;SDS011;11317;51.072;17.036;2022-11-20T00:11:35;36.15;;;12.75;;
22298;SDS011;11317;51.072;17.036;2022-11-20T00:14:01;34.95;;;15.25;;
22298;SDS011;11317;51.072;17.036;2022-11-20T00:16:28;39.53;;;15.63;;
22298;SDS011;11317;51.072;17.036;2022-11-20T00:18:56;35.83;;;14.75;;
22298;SDS011;11317;51.072;17.036;2022-11-20T00:21:23;31.08;;;14.27;;
22298;SDS011;11317;51.072;17.036;2022-11-20T00:23:53;35.25;;;16.98;;
22298;SDS011;11317;51.072;17.036;2022-11-20T00:26:20;38.33;;;15.55;;
22298;SDS011;11317;51.072;17.036;2022-11-20T00:28:50;34.78;;;14.77;;
22298;SDS011;11317;51.072;17.036;2022-11-20T00:31:17;35.65;;;14.48;;
22298;SDS011;11317;51.072;17.036;2022-11-20T00:33:44;35.40;;;15.52;;
22298;SDS011;11317;51.072;17.036;2022-11-20T00:36:12;38.83;;;16.27;;
22298;SDS011;11317;51.072;17.036;2022-11-20T00:38:39;36.03;;;13.77;;
22298;SDS011;11317;51.072;17.036;2022-11-20T00:41:06;35.83;;;15.27;;
22298;SDS011;11317;51.072;17.036;2022-11-20T00:43:33;41.38;;;15.38;;
22298;SDS011;11317;51.072;17.036;2022-11-20T00:46:06;38.47;;;16.02;;
22298;SDS011;11317;51.072;17.036;2022-11-20T00:48:34;39.55;;;13.93;;
22298;SDS011;11317;51.072;17.036;2022-11-20T00:51:00;40.78;;;14.18;;
22298;SDS011;11317;51.072;17.036;2022-11-20T00:53:26;36.13;;;15.65;;
22298;SDS011;11317;51.072;17.036;2022-11-20T00:55:56;42.20;;;15.73;;
22298;SDS011;11317;51.072;17.036;2022-11-20T00:58:23;34.83;;;14.85;;
22298;SDS011;11317;51.072;17.036;2022-11-20T01:00:50;41.00;;;16.25;;
22298;SDS011;11317;51.072;17.036;2022-11-20T01:03:17;39.80;;;16.20;;
22298;SDS011;11317;51.072;17.036;2022-11-20T01:05:43;34.65;;;15.23;;
22298;SDS011;11317;51.072;17.036;2022-11-20T01:08:09;39.33;;;17.08;;
22298;SDS011;11317;51.072;17.036;2022-11-20T01:10:35;29.35;;;12.65;;
22298;SDS011;11317;51.072;17.036;2022-11-20T01:13:02;35.58;;;15.10;;
22298;SDS011;11317;51.072;17.036;2022-11-20T01:15:46;41.00;;;15.88;;
22298;SDS011;11317;51.072;17.036;2022-11-20T01:18:12;37.67;;;15.02;;
22298;SDS011;11317;51.072;17.036;2022-11-20T01:20:38;41.67;;;16.20;;
22298;SDS011;11317;51.072;17.036;2022-11-20T01:23:05;41.70;;;18.77;;
22298;SDS011;11317;51.072;17.036;2022-11-20T01:25:31;42.67;;;16.42;;
22298;SDS011;11317;51.072;17.036;2022-11-20T01:27:57;41.35;;;16.90;;
22298;SDS011;11317;51.072;17.036;2022-11-20T01:30:22;39.60;;;15.13;;
22298;SDS011;11317;51.072;17.036;2022-11-20T01:32:49;43.30;;;17.17;;
22298;SDS011;11317;51.072;17.036;2022-11-20T01:35:15;39.78;;;14.88;;
22298;SDS011;11317;51.072;17.036;2022-11-20T01:37:41;45.13;;;15.63;;
22298;SDS011;11317;51.072;17.036;2022-11-20T01:40:08;35.28;;;15.20;;
22298;SDS011;11317;51.072;17.036;2022-11-20T01:42:34;34.33;;;14.25;;
22298;SDS011;11317;51.072;17.036;2022-11-20T01:48:13;33.22;;;12.15;;
22298;SDS011;11317;51.072;17.036;2022-11-20T01:50:39;33.38;;;12.43;;
22298;SDS011;11317;51.072;17.036;2022-11-20T01:53:07;38.03;;;15.13;;
22298;SDS011;11317;51.072;17.036;2022-11-20T01:55:36;30.33;;;14.73;;
22298;SDS011;11317;51.072;17.036;2022-11-20T01:58:06;31.50;;;13.80;;
22298;SDS011;11317;51.072;17.036;2022-11-20T02:00:32;33.20;;;14.82;;
22298;SDS011;11317;51.072;17.036;2022-11-20T02:02:59;34.53;;;14.52;;
22298;SDS011;11317;51.072;17.036;2022-11-20T02:05:38;44.80;;;16.83;;
22298;SDS011;11317;51.072;17.036;2022-11-20T02:08:27;36.22;;;12.70;;
22298;SDS011;11317;51.072;17.036;2022-11-20T02:10:53;32.72;;;13.32;;
22298;SDS011;11317;51.072;17.036;2022-11-20T02:13:19;37.95;;;14.07;;
22298;SDS011;11317;51.072;17.036;2022-11-20T02:16:04;29.17;;;12.95;;
22298;SDS011;11317;51.072;17.036;2022-11-20T02:18:33;31.17;;;12.25;;
22298;SDS011;11317;51.072;17.036;2022-11-20T02:21:01;30.58;;;13.55;;
22298;SDS011;11317;51.072;17.036;2022-11-20T02:23:51;28.50;;;12.18;;
22298;SDS011;11317;51.072;17.036;2022-11-20T02:26:26;23.48;;;11.70;;
22298;SDS011;11317;51.072;17.036;2022-11-20T02:28:54;33.13;;;12.57;;
22298;SDS011;11317;51.072;17.036;2022-11-20T02:31:20;39.25;;;14.00;;
22298;SDS011;11317;51.072;17.036;2022-11-20T02:33:46;33.88;;;14.05;;
22298;SDS011;11317;51.072;17.036;2022-11-20T02:36:14;25.27;;;13.18;;
22298;SDS011;11317;51.072;17.036;2022-11-20T02:38:41;35.35;;;13.25;;
22298;SDS011;11317;51.072;17.036;2022-11-20T02:41:08;33.83;;;11.07;;
22298;SDS011;11317;51.072;17.036;2022-11-20T02:43:34;22.95;;;11.73;;
22298;SDS011;11317;51.072;17.036;2022-11-20T02:45:59;25.40;;;11.07;;
22298;SDS011;11317;51.072;17.036;2022-11-20T02:48:25;32.42;;;12.45;;
22298;SDS011;11317;51.072;17.036;2022-11-20T02:50:51;26.83;;;12.65;;
22298;SDS011;11317;51.072;17.036;2022-11-20T02:53:17;25.48;;;11.30;;
22298;SDS011;11317;51.072;17.036;2022-11-20T02:55:43;33.53;;;12.70;;
22298;SDS011;11317;51.072;17.036;2022-11-20T02:58:09;32.28;;;11.85;;
22298;SDS011;11317;51.072;17.036;2022-11-20T03:00:35;31.63;;;11.02;;
22298;SDS011;11317;51.072;17.036;2022-11-20T03:03:01;29.45;;;11.80;;
22298;SDS011;11317;51.072;17.036;2022-11-20T03:05:28;29.00;;;11.13;;
22298;SDS011;11317;51.072;17.036;2022-11-20T03:07:54;23.38;;;11.35;;
22298;SDS011;11317;51.072;17.036;2022-11-20T03:10:20;29.42;;;13.10;;
22298;SDS011;11317;51.072;17.036;2022-11-20T03:12:46;23.50;;;11.98;;
22298;SDS011;11317;51.072;17.036;2022-11-20T03:15:13;24.00;;;10.23;;
22298;SDS011;11317;51.072;17.036;2022-11-20T03:17:39;28.17;;;11.48;;
22298;SDS011;11317;51.072;17.036;2022-11-20T03:20:05;28.00;;;11.30;;
22298;SDS011;11317;51.072;17.036;2022-11-20T03:22:31;29.77;;;11.75;;
22298;SDS011;11317;51.072;17.036;2022-11-20T03:24:57;27.15;;;10.10;;
22298;SDS011;11317;51.072;17.036;2022-11-20T03:27:23;25.98;;;12.55;;
22298;SDS011;11317;51.072;17.036;2022-11-20T03:29:49;27.15;;;11.30;;
22298;SDS011;11317;51.072;17.036;2022-11-20T03:32:14;27.73;;;11.43;;
22298;SDS011;11317;51.072;17.036;2022-11-20T03:34:40;26.38;;;10.43;;
22298;SDS011;11317;51.072;17.036;2022-11-20T03:37:06;21.95;;;9.43;;
22298;SDS011;11317;51.072;17.036;2022-11-20T03:39:33;25.80;;;10.68;;
22298;SDS011;11317;51.072;17.036;2022-11-20T03:41:59;27.15;;;12.10;;
22298;SDS011;11317;51.072;17.036;2022-11-20T03:44:24;24.67;;;9.65;;
22298;SDS011;11317;51.072;17.036;2022-11-20T03:46:50;25.98;;;11.32;;
22298;SDS011;11317;51.072;17.036;2022-11-20T03:49:17;32.38;;;12.50;;
22298;SDS011;11317;51.072;17.036;2022-11-20T03:51:43;22.70;;;9.65;;
22298;SDS011;11317;51.072;17.036;2022-11-20T03:54:09;21.70;;;10.77;;
22298;SDS011;11317;51.072;17.036;2022-11-20T03:56:35;26.55;;;10.95;;
22298;SDS011;11317;51.072;17.036;2022-11-20T03:59:03;25.25;;;11.65;;
22298;SDS011;11317;51.072;17.036;2022-11-20T04:01:35;20.67;;;10.38;;
22298;SDS011;11317;51.072;17.036;2022-11-20T04:04:02;24.65;;;13.50;;
22298;SDS011;11317;51.072;17.036;2022-11-20T04:06:35;29.52;;;10.07;;
22298;SDS011;11317;51.072;17.036;2022-11-20T04:09:02;29.33;;;11.18;;
22298;SDS011;11317;51.072;17.036;2022-11-20T04:11:29;25.67;;;10.40;;
22298;SDS011;11317;51.072;17.036;2022-11-20T04:13:57;26.40;;;11.60;;
22298;SDS011;11317;51.072;17.036;2022-11-20T04:16:28;22.75;;;10.23;;
22298;SDS011;11317;51.072;17.036;2022-11-20T04:18:56;29.55;;;11.30;;
22298;SDS011;11317;51.072;17.036;2022-11-20T04:21:23;30.10;;;12.10;;
22298;SDS011;11317;51.072;17.036;2022-11-20T04:23:50;27.90;;;12.40;;
22298;SDS011;11317;51.072;17.036;2022-11-20T04:26:17;27.13;;;10.88;;
22298;SDS011;11317;51.072;17.036;2022-11-20T04:28:44;21.20;;;10.82;;
22298;SDS011;11317;51.072;17.036;2022-11-20T04:31:13;26.92;;;12.75;;
22298;SDS011;11317;51.072;17.036;2022-11-20T04:33:41;33.47;;;13.00;;
22298;SDS011;11317;51.072;17.036;2022-11-20T04:38:50;34.28;;;12.65;;
22298;SDS011;11317;51.072;17.036;2022-11-20T04:41:18;27.23;;;10.93;;
22298;SDS011;11317;51.072;17.036;2022-11-20T04:43:48;27.55;;;11.30;;
22298;SDS011;11317;51.072;17.036;2022-11-20T04:46:15;21.55;;;11.20;;
22298;SDS011;11317;51.072;17.036;2022-11-20T04:48:42;27.13;;;10.45;;
22298;SDS011;11317;51.072;17.036;2022-11-20T04:51:08;20.33;;;10.20;;
22298;SDS011;11317;51.072;17.036;2022-11-20T04:53:34;24.45;;;11.43;;
22298;SDS011;11317;51.072;17.036;2022-11-20T04:56:01;22.23;;;11.10;;
22298;SDS011;11317;51.072;17.036;2022-11-20T04:58:28;28.63;;;12.57;;
22298;SDS011;11317;51.072;17.036;2022-11-20T05:01:00;27.48;;;11.75;;
22298;SDS011;11317;51.072;17.036;2022-11-20T05:03:27;28.73;;;11.27;;
22298;SDS011;11317;51.072;17.036;2022-11-20T05:05:53;27.58;;;12.50;;
22298;SDS011;11317;51.072;17.036;2022-11-20T05:08:19;32.25;;;13.02;;
22298;SDS011;11317;51.072;17.036;2022-11-20T05:10:45;28.77;;;12.75;;
22298;SDS011;11317;51.072;17.036;2022-11-20T05:13:11;35.25;;;14.20;;
22298;SDS011;11317;51.072;17.036;2022-11-20T05:15:37;31.83;;;12.18;;
22298;SDS011;11317;51.072;17.036;2022-11-20T05:18:03;28.60;;;11.88;;
22298;SDS011;11317;51.072;17.036;2022-11-20T05:20:28;24.20;;;13.00;;
22298;SDS011;11317;51.072;17.036;2022-11-20T05:22:57;27.05;;;12.13;;
22298;SDS011;11317;51.072;17.036;2022-11-20T05:25:23;29.00;;;11.85;;
22298;SDS011;11317;51.072;17.036;2022-11-20T05:27:49;32.13;;;12.48;;
22298;SDS011;11317;51.072;17.036;2022-11-20T05:30:15;30.50;;;13.27;;
22298;SDS011;11317;51.072;17.036;2022-11-20T05:32:41;29.52;;;12.40;;
22298;SDS011;11317;51.072;17.036;2022-11-20T05:35:07;32.80;;;14.50;;
22298;SDS011;11317;51.072;17.036;2022-11-20T05:37:33;36.53;;;13.73;;
22298;SDS011;11317;51.072;17.036;2022-11-20T05:39:59;31.30;;;14.18;;
22298;SDS011;11317;51.072;17.036;2022-11-20T05:42:25;32.55;;;14.43;;
22298;SDS011;11317;51.072;17.036;2022-11-20T05:45:05;26.52;;;13.93;;
22298;SDS011;11317;51.072;17.036;2022-11-20T05:47:32;42.33;;;14.65;;
22298;SDS011;11317;51.072;17.036;2022-11-20T05:49:59;32.17;;;14.65;;
22298;SDS011;11317;51.072;17.036;2022-11-20T05:52:27;39.53;;;13.52;;
22298;SDS011;11317;51.072;17.036;2022-11-20T05:54:53;32.53;;;13.02;;
22298;SDS011;11317;51.072;17.036;2022-11-20T05:57:19;33.80;;;13.63;;
22298;SDS011;11317;51.072;17.036;2022-11-20T05:59:45;33.35;;;13.77;;
22298;SDS011;11317;51.072;17.036;2022-11-20T06:02:11;30.10;;;13.45;;
22298;SDS011;11317;51.072;17.036;2022-11-20T06:04:38;34.13;;;14.85;;
22298;SDS011;11317;51.072;17.036;2022-11-20T06:07:06;37.67;;;14.45;;
22298;SDS011;11317;51.072;17.036;2022-11-20T06:09:32;32.60;;;15.27;;
22298;SDS011;11317;51.072;17.036;2022-11-20T06:11:59;42.55;;;16.73;;
22298;SDS011;11317;51.072;17.036;2022-11-20T06:14:25;44.83;;;18.15;;
22298;SDS011;11317;51.072;17.036;2022-11-20T06:16:51;39.55;;;16.65;;
22298;SDS011;11317;51.072;17.036;2022-11-20T06:19:17;47.25;;;15.60;;
22298;SDS011;11317;51.072;17.036;2022-11-20T06:21:42;37.70;;;15.38;;
22298;SDS011;11317;51.072;17.036;2022-11-20T06:24:09;34.55;;;15.38;;
22298;SDS011;11317;51.072;17.036;2022-11-20T06:26:35;39.47;;;16.13;;
22298;SDS011;11317;51.072;17.036;2022-11-20T06:29:01;40.70;;;16.13;;
22298;SDS011;11317;51.072;17.036;2022-11-20T06:31:26;37.42;;;16.98;;
22298;SDS011;11317;51.072;17.036;2022-11-20T06:33:53;38.67;;;17.92;;
22298;SDS011;11317;51.072;17.036;2022-11-20T06:36:20;34.35;;;16.60;;
22298;SDS011;11317;51.072;17.036;2022-11-20T06:38:47;38.88;;;18.27;;
22298;SDS011;11317;51.072;17.036;2022-11-20T06:41:14;39.40;;;16.40;;
22298;SDS011;11317;51.072;17.036;2022-11-20T06:43:41;40.55;;;17.15;;
22298;SDS011;11317;51.072;17.036;2022-11-20T06:46:08;42.85;;;17.60;;
22298;SDS011;11317;51.072;17.036;2022-11-20T06:48:34;44.88;;;18.35;;
22298;SDS011;11317;51.072;17.036;2022-11-20T06:51:02;39.00;;;17.13;;
22298;SDS011;11317;51.072;17.036;2022-11-20T06:53:29;42.03;;;18.05;;
22298;SDS011;11317;51.072;17.036;2022-11-20T06:55:55;44.75;;;15.85;;
22298;SDS011;11317;51.072;17.036;2022-11-20T06:58:28;40.72;;;17.75;;
22298;SDS011;11317;51.072;17.036;2022-11-20T07:00:58;35.17;;;18.05;;
22298;SDS011;11317;51.072;17.036;2022-11-20T07:03:24;39.13;;;16.27;;
22298;SDS011;11317;51.072;17.036;2022-11-20T07:05:50;40.17;;;18.77;;
22298;SDS011;11317;51.072;17.036;2022-11-20T07:08:18;45.10;;;17.67;;
22298;SDS011;11317;51.072;17.036;2022-11-20T07:10:43;39.70;;;17.15;;
22298;SDS011;11317;51.072;17.036;2022-11-20T07:13:09;47.03;;;17.17;;
22298;SDS011;11317;51.072;17.036;2022-11-20T07:15:35;43.92;;;17.05;;
22298;SDS011;11317;51.072;17.036;2022-11-20T07:18:02;42.78;;;17.02;;
22298;SDS011;11317;51.072;17.036;2022-11-20T07:20:27;45.45;;;19.27;;
22298;SDS011;11317;51.072;17.036;2022-11-20T07:22:54;37.80;;;18.10;;
22298;SDS011;11317;51.072;17.036;2022-11-20T07:25:21;42.40;;;18.63;;
22298;SDS011;11317;51.072;17.036;2022-11-20T07:27:48;42.90;;;17.25;;
22298;SDS011;11317;51.072;17.036;2022-11-20T07:30:14;45.38;;;18.42;;
22298;SDS011;11317;51.072;17.036;2022-11-20T07:32:40;37.35;;;17.75;;
22298;SDS011;11317;51.072;17.036;2022-11-20T07:35:06;48.65;;;18.45;;
22298;SDS011;11317;51.072;17.036;2022-11-20T07:37:36;42.17;;;17.70;;
22298;SDS011;11317;51.072;17.036;2022-11-20T07:40:02;45.92;;;18.25;;
22298;SDS011;11317;51.072;17.036;2022-11-20T07:42:28;46.00;;;18.60;;
22298;SDS011;11317;51.072;17.036;2022-11-20T07:44:54;40.50;;;18.08;;
22298;SDS011;11317;51.072;17.036;2022-11-20T07:47:20;44.25;;;17.42;;
22298;SDS011;11317;51.072;17.036;2022-11-20T07:49:48;38.67;;;17.08;;
22298;SDS011;11317;51.072;17.036;2022-11-20T07:52:14;34.92;;;16.75;;
22298;SDS011;11317;51.072;17.036;2022-11-20T07:54:40;41.13;;;16.90;;
22298;SDS011;11317;51.072;17.036;2022-11-20T07:57:06;38.80;;;15.98;;
22298;SDS011;11317;51.072;17.036;2022-11-20T07:59:32;43.10;;;16.00;;
22298;SDS011;11317;51.072;17.036;2022-11-20T08:01:58;41.72;;;17.35;;
22298;SDS011;11317;51.072;17.036;2022-11-20T08:04:24;36.35;;;16.17;;
22298;SDS011;11317;51.072;17.036;2022-11-20T08:06:51;35.22;;;17.45;;
22298;SDS011;11317;51.072;17.036;2022-11-20T08:09:17;35.88;;;17.20;;
22298;SDS011;11317;51.072;17.036;2022-11-20T08:11:43;33.60;;;16.33;;
22298;SDS011;11317;51.072;17.036;2022-11-20T08:14:28;27.60;;;14.27;;
22298;SDS011;11317;51.072;17.036;2022-11-20T08:16:54;32.20;;;15.73;;
22298;SDS011;11317;51.072;17.036;2022-11-20T08:19:20;30.60;;;12.13;;
22298;SDS011;11317;51.072;17.036;2022-11-20T08:21:45;29.42;;;15.90;;
22298;SDS011;11317;51.072;17.036;2022-11-20T08:24:11;30.63;;;14.82;;
22298;SDS011;11317;51.072;17.036;2022-11-20T08:26:38;32.60;;;16.13;;
22298;SDS011;11317;51.072;17.036;2022-11-20T08:29:05;37.58;;;17.33;;
22298;SDS011;11317;51.072;17.036;2022-11-20T08:31:31;25.30;;;14.40;;
22298;SDS011;11317;51.072;17.036;2022-11-20T08:33:57;26.80;;;13.38;;
22298;SDS011;11317;51.072;17.036;2022-11-20T08:36:23;30.05;;;14.65;;
22298;SDS011;11317;51.072;17.036;2022-11-20T08:38:49;30.25;;;14.80;;
22298;SDS011;11317;51.072;17.036;2022-11-20T08:41:16;27.35;;;13.70;;
22298;SDS011;11317;51.072;17.036;2022-11-20T08:43:48;29.70;;;13.98;;
22298;SDS011;11317;51.072;17.036;2022-11-20T08:46:15;26.17;;;13.43;;
22298;SDS011;11317;51.072;17.036;2022-11-20T08:48:41;26.60;;;13.60;;
22298;SDS011;11317;51.072;17.036;2022-11-20T08:51:07;27.20;;;13.95;;
22298;SDS011;11317;51.072;17.036;2022-11-20T08:53:33;29.17;;;14.05;;
22298;SDS011;11317;51.072;17.036;2022-11-20T08:55:59;24.30;;;13.18;;
22298;SDS011;11317;51.072;17.036;2022-11-20T08:58:25;23.77;;;13.73;;
22298;SDS011;11317;51.072;17.036;2022-11-20T09:00:51;27.55;;;13.80;;
22298;SDS011;11317;51.072;17.036;2022-11-20T09:03:18;28.05;;;13.85;;
22298;SDS011;11317;51.072;17.036;2022-11-20T09:05:43;26.23;;;14.20;;
22298;SDS011;11317;51.072;17.036;2022-11-20T09:08:09;25.88;;;14.07;;
22298;SDS011;11317;51.072;17.036;2022-11-20T09:10:35;22.88;;;12.93;;
22298;SDS011;11317;51.072;17.036;2022-11-20T09:13:01;23.23;;;12.32;;
22298;SDS011;11317;51.072;17.036;2022-11-20T09:15:28;24.20;;;12.77;;
22298;SDS011;11317;51.072;17.036;2022-11-20T09:17:54;22.88;;;12.63;;
22298;SDS011;11317;51.072;17.036;2022-11-20T09:20:21;22.10;;;12.18;;
22298;SDS011;11317;51.072;17.036;2022-11-20T09:22:46;20.23;;;11.30;;
22298;SDS011;11317;51.072;17.036;2022-11-20T09:25:13;22.13;;;12.07;;
22298;SDS011;11317;51.072;17.036;2022-11-20T09:27:39;19.60;;;11.68;;
22298;SDS011;11317;51.072;17.036;2022-11-20T09:30:09;23.40;;;12.98;;
22298;SDS011;11317;51.072;17.036;2022-11-20T09:32:36;23.30;;;12.45;;
22298;SDS011;11317;51.072;17.036;2022-11-20T09:35:02;22.40;;;12.07;;
22298;SDS011;11317;51.072;17.036;2022-11-20T09:37:28;21.35;;;12.23;;
22298;SDS011;11317;51.072;17.036;2022-11-20T09:39:54;22.15;;;12.15;;
22298;SDS011;11317;51.072;17.036;2022-11-20T09:42:41;22.02;;;12.65;;
22298;SDS011;11317;51.072;17.036;2022-11-20T09:45:29;20.10;;;11.48;;
22298;SDS011;11317;51.072;17.036;2022-11-20T09:54:27;22.80;;;12.88;;
22298;SDS011;11317;51.072;17.036;2022-11-20T09:57:02;24.27;;;12.32;;
22298;SDS011;11317;51.072;17.036;2022-11-20T09:59:43;22.33;;;11.60;;
22298;SDS011;11317;51.072;17.036;2022-11-20T10:02:35;22.77;;;12.05;;
22298;SDS011;11317;51.072;17.036;2022-11-20T10:05:37;22.40;;;11.60;;
22298;SDS011;11317;51.072;17.036;2022-11-20T10:08:23;20.85;;;11.00;;
22298;SDS011;11317;51.072;17.036;2022-11-20T10:11:05;21.80;;;11.80;;
22298;SDS011;11317;51.072;17.036;2022-11-20T10:13:44;22.02;;;12.02;;
22298;SDS011;11317;51.072;17.036;2022-11-20T10:16:26;22.02;;;11.50;;
22298;SDS011;11317;51.072;17.036;2022-11-20T10:25:03;22.20;;;11.88;;
22298;SDS011;11317;51.072;17.036;2022-11-20T10:27:45;22.85;;;11.55;;
22298;SDS011;11317;51.072;17.036;2022-11-20T10:30:42;19.60;;;10.75;;
22298;SDS011;11317;51.072;17.036;2022-11-20T10:33:16;23.25;;;11.25;;
22298;SDS011;11317;51.072;17.036;2022-11-20T10:35:45;20.33;;;10.48;;
22298;SDS011;11317;51.072;17.036;2022-11-20T10:38:34;19.10;;;9.57;;
22298;SDS011;11317;51.072;17.036;2022-11-20T10:41:06;22.55;;;9.85;;
22298;SDS011;11317;51.072;17.036;2022-11-20T10:43:54;20.85;;;10.15;;
22298;SDS011;11317;51.072;17.036;2022-11-20T10:46:22;23.73;;;10.00;;
22298;SDS011;11317;51.072;17.036;2022-11-20T10:48:48;22.02;;;10.05;;
22298;SDS011;11317;51.072;17.036;2022-11-20T10:56:52;20.85;;;9.02;;
22298;SDS011;11317;51.072;17.036;2022-11-20T11:02:31;20.10;;;8.38;;
22298;SDS011;11317;51.072;17.036;2022-11-20T11:04:58;17.52;;;7.85;;
22298;SDS011;11317;51.072;17.036;2022-11-20T11:07:43;16.83;;;8.38;;
22298;SDS011;11317;51.072;17.036;2022-11-20T11:10:17;16.92;;;8.00;;
22298;SDS011;11317;51.072;17.036;2022-11-20T11:12:47;20.58;;;8.55;;
22298;SDS011;11317;51.072;17.036;2022-11-20T11:15:24;17.70;;;7.25;;
22298;SDS011;11317;51.072;17.036;2022-11-20T11:17:55;12.73;;;6.70;;
22298;SDS011;11317;51.072;17.036;2022-11-20T11:20:22;13.77;;;7.07;;
22298;SDS011;11317;51.072;17.036;2022-11-20T11:22:51;17.60;;;8.77;;
22298;SDS011;11317;51.072;17.036;2022-11-20T11:25:31;14.95;;;7.55;;
22298;SDS011;11317;51.072;17.036;2022-11-20T11:30:44;18.05;;;7.78;;
22298;SDS011;11317;51.072;17.036;2022-11-20T11:33:21;17.70;;;7.93;;
22298;SDS011;11317;51.072;17.036;2022-11-20T11:35:52;19.85;;;8.45;;
22298;SDS011;11317;51.072;17.036;2022-11-20T11:38:27;23.15;;;8.25;;
22298;SDS011;11317;51.072;17.036;2022-11-20T11:41:00;17.10;;;8.48;;
22298;SDS011;11317;51.072;17.036;2022-11-20T11:43:27;19.30;;;8.63;;
22298;SDS011;11317;51.072;17.036;2022-11-20T11:48:56;20.33;;;7.60;;
22298;SDS011;11317;51.072;17.036;2022-11-20T11:56:58;15.13;;;6.70;;
22298;SDS011;11317;51.072;17.036;2022-11-20T11:59:28;16.00;;;7.25;;
22298;SDS011;11317;51.072;17.036;2022-11-20T12:02:13;15.15;;;7.22;;
22298;SDS011;11317;51.072;17.036;2022-11-20T12:04:54;12.90;;;7.13;;
22298;SDS011;11317;51.072;17.036;2022-11-20T12:07:39;17.77;;;7.55;;
22298;SDS011;11317;51.072;17.036;2022-11-20T12:10:15;17.80;;;7.75;;
22298;SDS011;11317;51.072;17.036;2022-11-20T12:12:56;18.02;;;7.18;;
22298;SDS011;11317;51.072;17.036;2022-11-20T12:15:52;15.48;;;6.95;;
22298;SDS011;11317;51.072;17.036;2022-11-20T12:18:19;14.60;;;7.13;;
22298;SDS011;11317;51.072;17.036;2022-11-20T12:24:02;21.20;;;8.23;;
22298;SDS011;11317;51.072;17.036;2022-11-20T12:30:01;16.17;;;6.97;;
22298;SDS011;11317;51.072;17.036;2022-11-20T12:32:43;13.05;;;6.82;;
22298;SDS011;11317;51.072;17.036;2022-11-20T12:38:08;14.95;;;7.15;;
22298;SDS011;11317;51.072;17.036;2022-11-20T12:40:58;13.15;;;6.82;;
22298;SDS011;11317;51.072;17.036;2022-11-20T12:44:21;16.10;;;7.35;;
22298;SDS011;11317;51.072;17.036;2022-11-20T12:56:21;16.17;;;7.32;;
22298;SDS011;11317;51.072;17.036;2022-11-20T13:07:08;22.70;;;9.38;;
22298;SDS011;11317;51.072;17.036;2022-11-20T13:09:38;16.70;;;7.68;;
22298;SDS011;11317;51.072;17.036;2022-11-20T13:12:15;17.77;;;7.70;;
22298;SDS011;11317;51.072;17.036;2022-11-20T13:17:52;12.60;;;6.68;;
22298;SDS011;11317;51.072;17.036;2022-11-20T13:20:22;15.98;;;7.05;;
22298;SDS011;11317;51.072;17.036;2022-11-20T13:22:52;17.55;;;7.15;;
22298;SDS011;11317;51.072;17.036;2022-11-20T13:25:26;14.40;;;6.80;;
22298;SDS011;11317;51.072;17.036;2022-11-20T13:27:55;16.83;;;6.25;;
22298;SDS011;11317;51.072;17.036;2022-11-20T13:30:23;14.23;;;6.30;;
22298;SDS011;11317;51.072;17.036;2022-11-20T13:35:37;13.63;;;5.82;;
22298;SDS011;11317;51.072;17.036;2022-11-20T13:38:09;13.00;;;6.32;;
22298;SDS011;11317;51.072;17.036;2022-11-20T13:40:53;14.43;;;6.63;;
22298;SDS011;11317;51.072;17.036;2022-11-20T13:43:28;15.10;;;6.85;;
22298;SDS011;11317;51.072;17.036;2022-11-20T13:46:07;19.92;;;6.35;;
22298;SDS011;11317;51.072;17.036;2022-11-20T13:48:44;16.27;;;6.10;;
22298;SDS011;11317;51.072;17.036;2022-11-20T13:59:40;13.05;;;6.55;;
22298;SDS011;11317;51.072;17.036;2022-11-20T14:02:25;15.85;;;6.45;;
22298;SDS011;11317;51.072;17.036;2022-11-20T14:04:53;18.17;;;7.35;;
22298;SDS011;11317;51.072;17.036;2022-11-20T14:07:21;19.75;;;7.65;;
22298;SDS011;11317;51.072;17.036;2022-11-20T14:09:56;17.63;;;7.35;;
22298;SDS011;11317;51.072;17.036;2022-11-20T14:12:23;15.50;;;7.10;;
22298;SDS011;11317;51.072;17.036;2022-11-20T14:14:54;15.75;;;7.15;;
22298;SDS011;11317;51.072;17.036;2022-11-20T14:17:30;18.00;;;8.13;;
22298;SDS011;11317;51.072;17.036;2022-11-20T14:20:02;21.48;;;8.15;;
22298;SDS011;11317;51.072;17.036;2022-11-20T14:22:37;20.30;;;8.07;;
22298;SDS011;11317;51.072;17.036;2022-11-20T14:27:39;14.48;;;7.63;;
22298;SDS011;11317;51.072;17.036;2022-11-20T14:30:11;20.63;;;8.70;;
22298;SDS011;11317;51.072;17.036;2022-11-20T14:32:43;20.02;;;8.40;;
22298;SDS011;11317;51.072;17.036;2022-11-20T14:35:13;22.77;;;9.13;;
22298;SDS011;11317;51.072;17.036;2022-11-20T14:37:45;19.77;;;9.15;;
22298;SDS011;11317;51.072;17.036;2022-11-20T14:40:24;22.55;;;9.30;;
22298;SDS011;11317;51.072;17.036;2022-11-20T14:42:50;20.65;;;8.88;;
22298;SDS011;11317;51.072;17.036;2022-11-20T14:45:16;25.73;;;10.52;;
22298;SDS011;11317;51.072;17.036;2022-11-20T14:47:42;21.65;;;9.85;;
22298;SDS011;11317;51.072;17.036;2022-11-20T14:50:25;20.60;;;10.43;;
22298;SDS011;11317;51.072;17.036;2022-11-20T14:52:58;25.08;;;10.05;;
22298;SDS011;11317;51.072;17.036;2022-11-20T14:55:26;22.45;;;10.20;;
22298;SDS011;11317;51.072;17.036;2022-11-20T14:58:00;26.73;;;9.93;;
22298;SDS011;11317;51.072;17.036;2022-11-20T15:00:31;32.00;;;13.03;;
22298;SDS011;11317;51.072;17.036;2022-11-20T15:02:58;27.65;;;12.98;;
22298;SDS011;11317;51.072;17.036;2022-11-20T15:05:46;31.95;;;14.85;;
22298;SDS011;11317;51.072;17.036;2022-11-20T15:08:12;35.15;;;15.80;;
22298;SDS011;11317;51.072;17.036;2022-11-20T15:10:38;31.75;;;12.88;;
22298;SDS011;11317;51.072;17.036;2022-11-20T15:16:03;31.67;;;13.90;;
22298;SDS011;11317;51.072;17.036;2022-11-20T15:18:39;37.67;;;16.35;;
22298;SDS011;11317;51.072;17.036;2022-11-20T15:21:13;38.83;;;17.17;;
22298;SDS011;11317;51.072;17.036;2022-11-20T15:23:40;42.75;;;16.48;;
22298;SDS011;11317;51.072;17.036;2022-11-20T15:26:06;34.75;;;13.10;;
22298;SDS011;11317;51.072;17.036;2022-11-20T15:28:34;35.22;;;15.50;;
22298;SDS011;11317;51.072;17.036;2022-11-20T15:31:02;30.45;;;13.75;;
22298;SDS011;11317;51.072;17.036;2022-11-20T15:33:29;44.92;;;15.25;;
22298;SDS011;11317;51.072;17.036;2022-11-20T15:35:55;36.92;;;15.88;;
22298;SDS011;11317;51.072;17.036;2022-11-20T15:38:22;31.20;;;15.13;;
22298;SDS011;11317;51.072;17.036;2022-11-20T15:40:48;34.13;;;15.18;;
22298;SDS011;11317;51.072;17.036;2022-11-20T15:43:14;37.33;;;14.07;;
22298;SDS011;11317;51.072;17.036;2022-11-20T15:45:41;38.83;;;14.85;;
22298;SDS011;11317;51.072;17.036;2022-11-20T15:53:13;36.15;;;16.27;;
22298;SDS011;11317;51.072;17.036;2022-11-20T15:55:39;56.33;;;22.55;;